Time;durP1;ratioP1;P1;durP2;ratioP2;P2;SDS_P1;SDS_P2;PMS_P1;PMS_P2;Temp;Humidity;BMP_temperature;BMP_pressure;BME280_temperature;BME280_humidity;BME280_pressure;Samples;Min_cycle;Max_cycle;Signal;HPM_P1;HPM_P2
2023/01/09 00:00:22;;;;;;;1.88;0.93;;;5.60;99.90;;;;;;7405888;19;19922;-73
2023/01/09 00:02:51;;;;;;;2.15;1.15;;;5.50;99.90;;;;;;7403174;19;19933;-72
2023/01/09 00:05:24;;;;;;;2.08;1.10;;;6.20;99.90;;;;;;7406802;19;19982;-72
2023/01/09 00:07:53;;;;;;;5.32;1.55;;;5.50;99.90;;;;;;7405566;19;19926;-73
2023/01/09 00:10:22;;;;;;;3.22;1.00;;;5.70;99.90;;;;;;7406598;19;19931;-73
2023/01/09 00:12:51;;;;;;;1.70;0.85;;;5.70;99.90;;;;;;7405419;19;20239;-73
2023/01/09 00:15:20;;;;;;;5.65;1.40;;;6.90;99.90;;;;;;7405216;19;19918;-73
2023/01/09 00:17:50;;;;;;;2.38;1.00;;;5.80;99.90;;;;;;7406559;19;19932;-73
2023/01/09 00:20:19;;;;;;;3.13;1.10;;;5.70;99.90;;;;;;7406379;19;19933;-73
2023/01/09 00:22:51;;;;;;;4.75;0.88;;;5.90;99.90;;;;;;7404724;19;19926;-73
2023/01/09 00:25:21;;;;;;;1.90;0.88;;;5.70;99.90;;;;;;7405011;19;19919;-73
2023/01/09 00:27:50;;;;;;;2.92;0.90;;;5.70;99.90;;;;;;7401814;19;19951;-73
2023/01/09 00:30:19;;;;;;;2.05;0.93;;;5.80;99.90;;;;;;7406575;19;19914;-73
2023/01/09 00:32:48;;;;;;;2.28;1.00;;;5.80;99.90;;;;;;7406679;19;19914;-73
2023/01/09 00:35:19;;;;;;;2.25;0.95;;;5.70;99.90;;;;;;7403230;19;19996;-73
2023/01/09 00:37:50;;;;;;;2.00;0.77;;;5.90;99.90;;;;;;7405891;19;19922;-73
2023/01/09 00:40:20;;;;;;;2.67;0.80;;;5.70;99.90;;;;;;7405432;19;19939;-73
2023/01/09 00:42:52;;;;;;;1.38;0.90;;;5.40;99.90;;;;;;7405235;19;19915;-73
2023/01/09 00:45:27;;;;;;;2.63;0.70;;;6.40;99.90;;;;;;7405776;19;20328;-73
2023/01/09 00:48:05;;;;;;;3.40;1.23;;;6.20;99.90;;;;;;7401998;19;19918;-73
2023/01/09 00:50:35;;;;;;;1.10;0.60;;;5.80;99.90;;;;;;7404156;19;19918;-73
2023/01/09 00:53:10;;;;;;;2.00;0.80;;;5.80;99.90;;;;;;7405141;19;19930;-73
2023/01/09 00:55:40;;;;;;;3.53;1.00;;;6.00;99.90;;;;;;7404135;19;19918;-73
2023/01/09 00:58:12;;;;;;;1.65;0.93;;;6.10;99.90;;;;;;7403897;19;19918;-73
2023/01/09 01:00:42;;;;;;;4.53;1.17;;;5.90;99.90;;;;;;7404986;19;19923;-73
2023/01/09 01:03:11;;;;;;;2.13;1.08;;;5.80;99.90;;;;;;7403264;19;19986;-73
2023/01/09 01:08:24;;;;;;;2.08;1.00;;;6.00;99.90;;;;;;7405341;19;20346;-73
2023/01/09 01:10:53;;;;;;;1.38;0.88;;;5.80;99.90;;;;;;7406309;19;20281;-73
2023/01/09 01:13:23;;;;;;;3.35;1.15;;;5.80;99.90;;;;;;7402285;19;19982;-73
2023/01/09 01:15:52;;;;;;;4.38;1.38;;;6.30;99.90;;;;;;7403631;19;19911;-74
2023/01/09 01:18:21;;;;;;;3.58;1.10;;;6.00;99.90;;;;;;7404819;19;19918;-74
2023/01/09 01:20:50;;;;;;;4.43;1.58;;;5.80;99.90;;;;;;7405225;19;19943;-75
2023/01/09 01:23:19;;;;;;;4.47;1.73;;;5.70;99.90;;;;;;7402648;19;20257;-74
2023/01/09 01:25:50;;;;;;;2.42;1.50;;;4.30;99.90;;;;;;7404110;19;19918;-74
2023/01/09 01:28:19;;;;;;;3.28;1.70;;;6.90;99.90;;;;;;7402765;19;19931;-73
2023/01/09 01:30:52;;;;;;;3.05;1.48;;;6.60;99.90;;;;;;7404563;19;19915;-73
2023/01/09 01:33:21;;;;;;;3.58;1.55;;;5.40;99.90;;;;;;7403764;19;19943;-74
2023/01/09 01:35:50;;;;;;;3.60;1.50;;;5.50;99.90;;;;;;7403739;19;19998;-73
2023/01/09 01:38:19;;;;;;;2.28;1.45;;;5.60;99.90;;;;;;7403383;19;19943;-73
2023/01/09 01:40:54;;;;;;;2.58;1.42;;;5.60;99.90;;;;;;7404061;19;19935;-73
2023/01/09 01:43:25;;;;;;;2.03;1.00;;;5.60;99.90;;;;;;7402406;19;19937;-73
2023/01/09 01:45:55;;;;;;;1.92;0.70;;;5.40;99.90;;;;;;7403230;19;19946;-73
2023/01/09 01:48:27;;;;;;;1.08;0.60;;;5.30;99.90;;;;;;7403460;19;20345;-72
2023/01/09 01:51:02;;;;;;;2.55;0.50;;;5.20;99.90;;;;;;7403710;19;19918;-73
2023/01/09 01:53:34;;;;;;;1.92;0.73;;;5.40;99.90;;;;;;7412464;19;19918;-73
2023/01/09 01:56:13;;;;;;;0.50;0.40;;;5.40;99.90;;;;;;7411179;19;19923;-72
2023/01/09 01:58:46;;;;;;;1.73;0.63;;;5.30;99.90;;;;;;7407155;19;19926;-72
2023/01/09 02:01:15;;;;;;;0.60;0.40;;;5.40;99.90;;;;;;7409716;19;19986;-72
2023/01/09 02:03:44;;;;;;;1.10;0.90;;;5.40;99.90;;;;;;7408307;19;20006;-72
2023/01/09 02:06:16;;;;;;;1.70;0.82;;;5.30;99.90;;;;;;7404312;19;20270;-73
2023/01/09 02:08:45;;;;;;;1.90;0.85;;;5.50;99.90;;;;;;7406281;19;19947;-74
2023/01/09 02:11:20;;;;;;;1.35;0.90;;;5.30;99.90;;;;;;7408624;19;19918;-73
2023/01/09 02:13:50;;;;;;;2.63;1.15;;;5.50;99.90;;;;;;7406630;19;19945;-71
2023/01/09 02:16:28;;;;;;;1.33;1.00;;;6.20;99.90;;;;;;7408474;19;19926;-72
2023/01/09 02:19:07;;;;;;;1.60;1.10;;;5.30;99.90;;;;;;7408825;19;19925;-73
2023/01/09 02:21:47;;;;;;;2.45;1.33;;;5.50;99.90;;;;;;7409262;19;19935;-72
2023/01/09 02:24:45;;;;;;;3.05;1.30;;;5.50;99.90;;;;;;7409114;19;19923;-72
2023/01/09 02:27:36;;;;;;;1.60;1.00;;;5.20;99.90;;;;;;7408669;19;19919;-72
2023/01/09 02:30:42;;;;;;;1.05;0.75;;;5.30;99.90;;;;;;7411515;19;19918;-72
2023/01/09 02:33:27;;;;;;;1.02;0.70;;;5.30;99.90;;;;;;7408043;19;19943;-72
2023/01/09 02:36:19;;;;;;;0.70;0.60;;;5.10;99.90;;;;;;7408700;19;20270;-72
2023/01/09 02:38:58;;;;;;;1.77;0.80;;;5.20;99.90;;;;;;7408393;19;19918;-73
2023/01/09 02:41:33;;;;;;;2.30;0.52;;;5.80;99.90;;;;;;7407658;19;19996;-72
2023/01/09 02:44:18;;;;;;;1.95;0.52;;;5.20;99.90;;;;;;7405346;19;20363;-71
2023/01/09 02:47:00;;;;;;;1.88;0.60;;;5.40;99.90;;;;;;7406251;19;19998;-72
2023/01/09 02:49:30;;;;;;;4.32;0.60;;;5.40;99.90;;;;;;7407712;19;20306;-72
2023/01/09 02:52:09;;;;;;;2.33;0.57;;;5.20;99.90;;;;;;7408207;19;19948;-72
2023/01/09 02:54:47;;;;;;;1.02;0.50;;;6.30;99.90;;;;;;7406479;19;19922;-72
2023/01/09 02:57:27;;;;;;;0.63;0.43;;;5.30;99.90;;;;;;7406902;19;20341;-72
2023/01/09 03:00:10;;;;;;;0.82;0.30;;;6.30;99.90;;;;;;7406639;19;19926;-72
2023/01/09 03:02:52;;;;;;;0.90;0.55;;;3.90;99.90;;;;;;7406965;19;19923;-72
2023/01/09 03:05:27;;;;;;;2.33;0.77;;;5.90;99.90;;;;;;7406473;19;19929;-72
2023/01/09 03:08:04;;;;;;;1.85;0.70;;;6.00;99.90;;;;;;7407624;19;19922;-72
2023/01/09 03:10:42;;;;;;;1.52;0.63;;;5.30;99.90;;;;;;7408939;19;19965;-71
2023/01/09 03:13:14;;;;;;;1.60;0.60;;;5.20;99.90;;;;;;7407526;19;19922;-71
2023/01/09 03:15:48;;;;;;;1.98;0.77;;;5.20;99.90;;;;;;7406918;19;20325;-72
2023/01/09 03:18:23;;;;;;;1.90;0.90;;;5.20;99.90;;;;;;7404957;19;19923;-71
2023/01/09 03:20:53;;;;;;;0.98;0.77;;;5.20;99.90;;;;;;7408233;19;19943;-72
2023/01/09 03:23:22;;;;;;;2.95;1.02;;;6.00;99.90;;;;;;7406898;19;19914;-72
2023/01/09 03:25:51;;;;;;;2.13;0.90;;;5.20;99.90;;;;;;7401611;19;19937;-72
2023/01/09 03:28:28;;;;;;;2.88;1.25;;;5.30;99.90;;;;;;7407784;19;20256;-72
2023/01/09 03:30:57;;;;;;;2.85;1.10;;;5.10;99.90;;;;;;7404315;19;19923;-72
2023/01/09 03:33:29;;;;;;;3.05;1.10;;;5.20;99.90;;;;;;7406392;19;19947;-72
2023/01/09 03:35:58;;;;;;;2.47;1.20;;;5.30;99.90;;;;;;7408781;19;19919;-72
2023/01/09 03:38:27;;;;;;;2.67;1.15;;;5.20;99.90;;;;;;7408978;19;20337;-72
2023/01/09 03:40:56;;;;;;;3.30;1.23;;;5.00;99.90;;;;;;7408717;19;20337;-72
2023/01/09 03:43:25;;;;;;;5.32;1.42;;;5.00;99.90;;;;;;7406242;19;19911;-72
2023/01/09 03:45:54;;;;;;;2.42;1.50;;;4.90;99.90;;;;;;7407170;19;19930;-71
2023/01/09 03:48:23;;;;;;;2.83;1.77;;;4.80;99.90;;;;;;7408008;19;19919;-71
2023/01/09 03:50:55;;;;;;;3.00;1.15;;;5.40;99.90;;;;;;7407224;19;19927;-72
2023/01/09 03:53:29;;;;;;;3.08;1.48;;;4.80;99.90;;;;;;7407183;19;20257;-72
2023/01/09 03:55:59;;;;;;;6.53;1.63;;;4.90;99.90;;;;;;7406023;19;19947;-72
2023/01/09 03:58:29;;;;;;;5.72;1.33;;;5.10;99.90;;;;;;7407578;19;19923;-71
2023/01/09 04:01:00;;;;;;;3.00;1.40;;;5.50;99.90;;;;;;7406589;19;19918;-72
2023/01/09 04:03:29;;;;;;;2.13;1.30;;;5.00;99.90;;;;;;7407361;19;19926;-72
2023/01/09 04:06:01;;;;;;;2.92;1.60;;;5.70;99.90;;;;;;7407265;19;19910;-72
2023/01/09 04:08:32;;;;;;;2.38;1.70;;;4.80;99.90;;;;;;7406961;19;19934;-72
2023/01/09 04:11:01;;;;;;;3.25;1.50;;;5.80;99.90;;;;;;7408782;19;19999;-72
2023/01/09 04:13:30;;;;;;;8.63;1.60;;;4.70;99.90;;;;;;7406877;19;19918;-72
2023/01/09 04:15:59;;;;;;;1.83;1.35;;;4.60;99.90;;;;;;7405447;19;19919;-72
2023/01/09 04:18:27;;;;;;;4.85;1.73;;;4.60;99.90;;;;;;7405992;19;20400;-72
2023/01/09 04:20:57;;;;;;;6.20;2.05;;;4.60;99.90;;;;;;7406341;19;19970;-72
2023/01/09 04:23:28;;;;;;;4.85;1.52;;;4.50;99.90;;;;;;7403778;19;19922;-72
2023/01/09 04:25:57;;;;;;;9.77;1.90;;;4.60;99.90;;;;;;7407246;19;19934;-72
2023/01/09 04:28:26;;;;;;;3.22;1.73;;;4.70;99.90;;;;;;7405254;19;20249;-72
2023/01/09 04:30:55;;;;;;;7.22;2.03;;;5.00;99.90;;;;;;7407392;19;19922;-71
2023/01/09 04:33:24;;;;;;;3.35;1.80;;;4.90;99.90;;;;;;7403394;19;19982;-73
2023/01/09 04:35:53;;;;;;;5.30;1.63;;;4.40;99.90;;;;;;7405743;19;19928;-72
2023/01/09 04:38:22;;;;;;;3.15;1.33;;;5.40;99.90;;;;;;7407160;19;20002;-72
2023/01/09 04:40:54;;;;;;;4.18;1.80;;;5.30;99.90;;;;;;7404291;19;20171;-72
2023/01/09 04:43:23;;;;;;;3.78;1.70;;;4.50;99.90;;;;;;7405265;19;19923;-72
2023/01/09 04:45:52;;;;;;;5.50;2.03;;;5.00;99.90;;;;;;7401161;19;20338;-72
2023/01/09 04:48:21;;;;;;;5.28;2.10;;;4.30;99.90;;;;;;7406270;19;19922;-72
2023/01/09 04:50:50;;;;;;;5.03;1.70;;;5.30;99.90;;;;;;7405018;19;20313;-72
2023/01/09 04:53:19;;;;;;;4.55;1.75;;;4.90;99.90;;;;;;7406949;19;20262;-72
2023/01/09 04:55:48;;;;;;;2.58;1.23;;;4.20;99.90;;;;;;7406039;19;20008;-72
2023/01/09 04:58:19;;;;;;;2.28;1.10;;;5.40;99.90;;;;;;7404503;19;19927;-72
2023/01/09 05:00:48;;;;;;;4.13;1.50;;;4.80;99.90;;;;;;7403042;19;19922;-73
2023/01/09 05:03:17;;;;;;;4.47;1.60;;;4.20;99.90;;;;;;7403291;19;19921;-72
2023/01/09 05:05:46;;;;;;;5.93;2.15;;;4.50;99.90;;;;;;7408127;19;19937;-72
2023/01/09 05:08:15;;;;;;;5.22;1.48;;;5.00;99.90;;;;;;7405079;19;19921;-72
2023/01/09 05:10:45;;;;;;;4.25;1.50;;;4.90;99.90;;;;;;7406137;19;20266;-72
2023/01/09 05:13:14;;;;;;;3.75;1.83;;;4.10;99.90;;;;;;7403808;19;19918;-72
2023/01/09 05:15:46;;;;;;;4.38;1.88;;;4.00;99.90;;;;;;7403947;19;20337;-72
2023/01/09 05:18:15;;;;;;;5.85;2.17;;;4.60;99.90;;;;;;7403950;19;19914;-72
2023/01/09 05:20:44;;;;;;;5.55;2.50;;;3.50;99.90;;;;;;7406965;19;19915;-72
2023/01/09 05:23:13;;;;;;;5.93;2.10;;;4.70;99.90;;;;;;7405168;19;19920;-72
2023/01/09 05:25:42;;;;;;;4.35;2.50;;;5.20;99.90;;;;;;7403043;19;19950;-72
2023/01/09 05:28:11;;;;;;;4.75;2.20;;;4.00;99.90;;;;;;7403297;19;19922;-72
2023/01/09 05:30:40;;;;;;;6.32;2.95;;;4.70;99.90;;;;;;7400311;19;19918;-72
2023/01/09 05:33:11;;;;;;;6.13;2.70;;;4.20;99.90;;;;;;7403634;19;19915;-72
2023/01/09 05:35:40;;;;;;;5.50;3.08;;;4.40;99.90;;;;;;7403572;19;19935;-72
2023/01/09 05:38:10;;;;;;;8.02;3.47;;;4.00;99.90;;;;;;7403029;19;19982;-72
2023/01/09 05:40:39;;;;;;;7.72;4.05;;;4.90;99.90;;;;;;7402470;19;19954;-72
2023/01/09 05:43:08;;;;;;;5.57;3.53;;;5.10;99.90;;;;;;7400680;19;19933;-72
2023/01/09 05:45:37;;;;;;;7.60;3.75;;;4.00;99.90;;;;;;7401547;19;19947;-72
2023/01/09 05:48:06;;;;;;;7.55;3.55;;;4.10;99.90;;;;;;7399806;19;20358;-72
2023/01/09 05:50:38;;;;;;;9.18;3.53;;;4.00;99.90;;;;;;7405492;19;19922;-72
2023/01/09 05:53:07;;;;;;;8.45;4.30;;;4.20;99.90;;;;;;7402329;19;20261;-72
2023/01/09 05:55:36;;;;;;;7.65;3.97;;;5.00;99.90;;;;;;7401389;19;19919;-72
2023/01/09 05:58:05;;;;;;;14.35;4.53;;;4.80;99.90;;;;;;7400974;19;19946;-72
2023/01/09 06:00:34;;;;;;;9.32;4.50;;;4.90;99.90;;;;;;7403229;19;20282;-72
2023/01/09 06:03:03;;;;;;;11.25;4.03;;;4.40;99.90;;;;;;7402848;19;19919;-72
2023/01/09 06:05:32;;;;;;;11.32;5.05;;;4.10;99.90;;;;;;7402273;19;19988;-72
2023/01/09 06:08:04;;;;;;;7.93;4.65;;;4.40;99.90;;;;;;7403593;19;20405;-72
2023/01/09 06:10:37;;;;;;;10.60;5.00;;;5.40;99.90;;;;;;7403388;19;20355;-72
2023/01/09 06:13:07;;;;;;;11.27;5.70;;;4.90;99.90;;;;;;7401743;19;19992;-72
2023/01/09 06:15:36;;;;;;;11.27;6.10;;;4.50;99.90;;;;;;7401088;19;19985;-73
2023/01/09 06:18:05;;;;;;;11.20;5.20;;;4.40;99.90;;;;;;7401083;19;19932;-72
2023/01/09 06:20:34;;;;;;;12.80;5.78;;;3.70;99.90;;;;;;7401680;19;19943;-72
2023/01/09 06:23:06;;;;;;;12.98;6.50;;;4.30;99.90;;;;;;7402408;19;20313;-72
2023/01/09 06:25:34;;;;;;;11.52;6.18;;;4.20;99.90;;;;;;7401912;19;20356;-72
2023/01/09 06:28:03;;;;;;;9.77;5.10;;;4.00;99.90;;;;;;7401374;19;19934;-72
2023/01/09 06:30:32;;;;;;;10.65;6.00;;;4.30;99.90;;;;;;7400826;19;19919;-72
2023/01/09 06:33:01;;;;;;;15.70;6.13;;;4.20;99.90;;;;;;7400352;19;20338;-72
2023/01/09 06:35:31;;;;;;;11.95;5.80;;;3.60;99.90;;;;;;7402191;19;19919;-72
2023/01/09 06:38:01;;;;;;;10.32;5.75;;;5.50;99.90;;;;;;7404554;19;19918;-72
2023/01/09 06:40:33;;;;;;;15.63;6.07;;;3.90;99.90;;;;;;7409236;19;20263;-72
2023/01/09 06:43:02;;;;;;;14.55;5.57;;;4.70;99.90;;;;;;7408395;19;19918;-72
2023/01/09 06:45:31;;;;;;;11.27;5.32;;;4.30;99.90;;;;;;7408393;19;20337;-71
2023/01/09 06:48:00;;;;;;;12.15;5.55;;;5.10;99.90;;;;;;7405644;19;19925;-72
2023/01/09 06:50:45;;;;;;;9.80;5.70;;;4.30;99.90;;;;;;7408272;19;19985;-73
2023/01/09 06:53:14;;;;;;;10.50;5.57;;;5.40;99.90;;;;;;7407475;19;19925;-72
2023/01/09 06:55:46;;;;;;;12.23;5.75;;;4.30;99.90;;;;;;7409140;19;19935;-72
2023/01/09 06:58:35;;;;;;;11.15;5.32;;;3.80;99.90;;;;;;7405795;19;20285;-71
2023/01/09 07:01:23;;;;;;;13.55;4.80;;;4.50;99.90;;;;;;7397279;19;19919;-72
2023/01/09 07:04:08;;;;;;;;;;;4.30;99.90;;;;;;7406892;19;19910;-76
2023/01/09 07:06:36;;;;;;;11.10;5.47;;;5.00;99.90;;;;;;7408439;19;19922;-74
2023/01/09 07:09:06;;;;;;;12.57;5.10;;;4.40;99.90;;;;;;7409699;19;19918;-73
2023/01/09 07:11:38;;;;;;;12.68;5.10;;;5.10;99.90;;;;;;7408220;19;19914;-72
2023/01/09 07:14:08;;;;;;;15.93;5.43;;;5.10;99.90;;;;;;7407946;19;19946;-71
2023/01/09 07:16:37;;;;;;;10.85;5.15;;;4.70;99.90;;;;;;7406629;19;20242;-71
2023/01/09 07:19:06;;;;;;;10.35;4.18;;;4.40;99.90;;;;;;7409716;19;20244;-74
2023/01/09 07:21:45;;;;;;;12.52;4.45;;;5.00;99.90;;;;;;7406666;19;19943;-71
2023/01/09 07:24:14;;;;;;;7.53;4.68;;;5.20;99.90;;;;;;7408490;19;19922;-71
2023/01/09 07:26:45;;;;;;;12.35;4.28;;;4.30;99.90;;;;;;7405213;19;19918;-70
2023/01/09 07:29:14;;;;;;;9.35;4.57;;;5.00;99.90;;;;;;7408527;19;20022;-70
2023/01/09 07:31:43;;;;;;;8.35;4.10;;;4.30;99.90;;;;;;7404379;19;19913;-71
2023/01/09 07:34:12;;;;;;;8.82;4.53;;;4.20;99.90;;;;;;7409790;19;20013;-70
2023/01/09 07:36:45;;;;;;;6.60;3.83;;;4.60;99.90;;;;;;7406044;19;19941;-70
2023/01/09 07:39:14;;;;;;;7.30;4.13;;;4.30;99.90;;;;;;7406066;19;19919;-70
2023/01/09 07:41:46;;;;;;;9.07;3.50;;;4.80;99.90;;;;;;7407053;19;19947;-70
2023/01/09 07:44:15;;;;;;;9.57;3.85;;;4.80;99.90;;;;;;7406012;19;20248;-70
2023/01/09 07:46:44;;;;;;;9.85;3.35;;;4.40;99.90;;;;;;7405350;19;20418;-70
2023/01/09 07:49:14;;;;;;;8.07;4.78;;;4.40;99.90;;;;;;7404201;19;20266;-70
2023/01/09 07:51:44;;;;;;;9.75;3.70;;;3.30;99.90;;;;;;7406064;19;19939;-70
2023/01/09 07:54:14;;;;;;;6.97;3.63;;;4.80;99.90;;;;;;7406350;19;19922;-70
2023/01/09 07:57:03;;;;;;;9.13;3.70;;;4.20;99.90;;;;;;7407054;19;20321;-70
2023/01/09 07:59:32;;;;;;;7.93;3.45;;;4.50;99.90;;;;;;7405457;19;19922;-70
2023/01/09 08:02:04;;;;;;;7.72;3.53;;;4.40;99.90;;;;;;7407219;19;19926;-70
2023/01/09 08:04:33;;;;;;;9.45;3.50;;;4.90;99.90;;;;;;7404540;19;19926;-70
2023/01/09 08:07:02;;;;;;;7.25;3.53;;;4.50;99.90;;;;;;7408577;19;20337;-70
2023/01/09 08:09:31;;;;;;;8.48;3.80;;;4.40;99.90;;;;;;7402955;19;19935;-70
2023/01/09 08:12:03;;;;;;;7.55;3.50;;;5.30;99.90;;;;;;7404564;19;19938;-70
2023/01/09 08:14:34;;;;;;;6.65;3.60;;;4.80;99.90;;;;;;7405231;19;19929;-70
2023/01/09 08:17:04;;;;;;;10.15;3.58;;;5.30;99.90;;;;;;7405319;19;19973;-79
2023/01/09 08:19:33;;;;;;;9.63;3.38;;;4.50;99.90;;;;;;7405915;19;19958;-73
2023/01/09 08:22:01;;;;;;;10.55;3.67;;;4.40;99.90;;;;;;7404618;19;19918;-70
2023/01/09 08:24:31;;;;;;;8.45;3.33;;;5.50;99.90;;;;;;7403994;19;19970;-70
2023/01/09 08:27:03;;;;;;;6.57;2.90;;;4.90;99.90;;;;;;7404631;19;19958;-70
2023/01/09 08:29:32;;;;;;;5.95;2.78;;;4.70;99.90;;;;;;7405179;19;19925;-69
2023/01/09 08:32:00;;;;;;;5.57;3.00;;;4.60;99.90;;;;;;7405136;19;19929;-70
2023/01/09 08:34:31;;;;;;;7.45;2.95;;;4.40;99.90;;;;;;7404935;19;19910;-69
2023/01/09 08:36:59;;;;;;;6.15;2.88;;;4.50;99.90;;;;;;7404993;19;19986;-70
2023/01/09 08:39:29;;;;;;;11.05;2.60;;;5.10;99.90;;;;;;7404367;19;19928;-69
2023/01/09 08:47:32;;;;;;;5.82;2.17;;;4.70;99.90;;;;;;7402991;19;19923;-70
2023/01/09 08:50:01;;;;;;;7.10;2.40;;;4.50;99.90;;;;;;7403880;19;19919;-69
2023/01/09 08:52:38;;;;;;;6.03;2.20;;;5.10;99.90;;;;;;7404398;19;20302;-70
2023/01/09 08:55:08;;;;;;;5.00;2.22;;;4.40;99.90;;;;;;7404944;19;20269;-69
2023/01/09 08:57:37;;;;;;;3.38;1.77;;;4.50;99.90;;;;;;7404946;19;19923;-70
2023/01/09 09:00:13;;;;;;;3.63;2.15;;;5.40;99.90;;;;;;7403584;19;19918;-70
2023/01/09 09:02:41;;;;;;;6.18;1.83;;;4.50;99.90;;;;;;7402519;19;19936;-70
2023/01/09 09:05:11;;;;;;;6.13;2.35;;;4.70;99.90;;;;;;7402723;19;19915;-70
2023/01/09 09:07:41;;;;;;;6.50;2.33;;;4.50;99.90;;;;;;7403439;19;19982;-70
2023/01/09 09:10:12;;;;;;;5.50;2.10;;;4.60;99.90;;;;;;7403864;19;19911;-70
2023/01/09 09:12:41;;;;;;;6.63;2.03;;;4.60;99.90;;;;;;7403675;19;19917;-70
2023/01/09 09:15:33;;;;;;;5.93;2.42;;;5.10;99.90;;;;;;7402498;19;19918;-69
2023/01/09 09:18:22;;;;;;;2.95;1.73;;;4.60;99.90;;;;;;7401852;19;19925;-70
2023/01/09 09:21:11;;;;;;;5.30;1.60;;;4.60;99.90;;;;;;7401988;19;19939;-70
2023/01/09 09:24:00;;;;;;;5.43;2.00;;;5.20;99.90;;;;;;7401635;19;20340;-69
2023/01/09 09:26:49;;;;;;;6.20;2.25;;;4.70;99.90;;;;;;7401368;19;20234;-70
2023/01/09 09:29:37;;;;;;;4.40;1.88;;;4.70;99.90;;;;;;7402318;19;20250;-70
2023/01/09 09:32:29;;;;;;;8.60;1.95;;;5.40;99.90;;;;;;7401729;19;19914;-70
2023/01/09 09:35:19;;;;;;;9.85;2.10;;;4.80;99.90;;;;;;7401560;19;19925;-69
2023/01/09 09:38:08;;;;;;;2.95;1.65;;;4.70;99.90;;;;;;7401748;19;19914;-70
2023/01/09 09:44:46;;;;;;;5.43;1.90;;;4.80;99.90;;;;;;7400684;19;19918;-69
2023/01/09 09:47:49;;;;;;;6.22;2.17;;;5.30;99.90;;;;;;7400329;19;19914;-70
2023/01/09 09:51:04;;;;;;;8.65;2.05;;;4.90;99.90;;;;;;7401524;19;19954;-70
2023/01/09 09:53:40;;;;;;;2.13;1.50;;;4.90;99.90;;;;;;7403192;19;19911;-70
2023/01/09 09:56:14;;;;;;;5.40;1.50;;;4.90;99.90;;;;;;7403297;19;20226;-70
2023/01/09 09:58:46;;;;;;;5.63;1.50;;;4.80;99.90;;;;;;7402764;19;19914;-70
2023/01/09 10:01:20;;;;;;;4.80;1.60;;;4.70;99.90;;;;;;7402399;19;20008;-70
2023/01/09 10:03:54;;;;;;;2.95;1.58;;;5.80;99.90;;;;;;7401666;19;20376;-70
2023/01/09 10:06:30;;;;;;;5.55;1.40;;;5.00;99.90;;;;;;7400697;19;19930;-70
2023/01/09 10:09:07;;;;;;;4.05;2.10;;;4.90;99.90;;;;;;7400094;19;19922;-70
2023/01/09 10:11:44;;;;;;;3.97;2.00;;;5.40;99.90;;;;;;7402469;19;19919;-70
2023/01/09 10:14:13;;;;;;;5.25;1.70;;;5.50;99.90;;;;;;7408847;19;19914;-70
2023/01/09 10:16:55;;;;;;;5.78;1.75;;;5.70;99.90;;;;;;7408593;19;19918;-70
2023/01/09 10:19:43;;;;;;;5.45;1.65;;;5.70;99.90;;;;;;7408821;19;19934;-70
2023/01/09 10:22:23;;;;;;;2.80;1.30;;;5.00;99.90;;;;;;7408587;19;19922;-70
2023/01/09 10:25:05;;;;;;;4.07;1.92;;;6.00;99.90;;;;;;7407754;19;19978;-70
2023/01/09 10:27:54;;;;;;;5.82;2.40;;;5.00;99.90;;;;;;7408021;19;20336;-70
2023/01/09 10:30:31;;;;;;;4.25;1.65;;;5.00;99.90;;;;;;7408294;19;19925;-70
2023/01/09 10:33:07;;;;;;;;;;;5.00;99.90;;;;;;7411347;19;19928;-70
2023/01/09 10:35:52;;;;;;;6.40;1.83;;;5.10;99.90;;;;;;7408625;19;19914;-70
2023/01/09 10:38:27;;;;;;;4.65;1.90;;;5.10;99.90;;;;;;7408978;19;19922;-70
2023/01/09 10:41:02;;;;;;;6.00;2.30;;;5.80;99.90;;;;;;7409851;19;20823;-70
2023/01/09 10:43:36;;;;;;;6.70;1.80;;;5.20;99.90;;;;;;7409097;19;19922;-70
2023/01/09 10:46:11;;;;;;;5.95;1.80;;;5.20;99.90;;;;;;7406800;19;19919;-70
2023/01/09 10:48:44;;;;;;;3.63;1.40;;;5.30;99.90;;;;;;7405207;19;19933;-70
2023/01/09 10:51:21;;;;;;;6.50;1.88;;;5.40;99.90;;;;;;7409245;19;19936;-70
2023/01/09 10:53:53;;;;;;;4.18;1.80;;;5.40;99.90;;;;;;7411978;19;19921;-70
2023/01/09 10:56:25;;;;;;;6.82;2.47;;;5.50;99.90;;;;;;7408299;19;19930;-70
2023/01/09 10:58:56;;;;;;;6.20;1.98;;;5.60;99.90;;;;;;7407686;19;20251;-70
2023/01/09 11:01:28;;;;;;;5.50;1.95;;;5.40;99.90;;;;;;7407421;19;19921;-70
2023/01/09 11:03:58;;;;;;;5.03;1.63;;;5.50;99.90;;;;;;7406996;19;19978;-70
2023/01/09 11:06:38;;;;;;;5.68;1.85;;;5.70;99.90;;;;;;7405290;19;19915;-69
2023/01/09 11:09:07;;;;;;;4.25;1.73;;;5.60;99.90;;;;;;7403414;19;19926;-70
2023/01/09 11:11:39;;;;;;;7.43;1.85;;;5.50;99.90;;;;;;7407418;19;19936;-70
2023/01/09 11:14:15;;;;;;;3.28;1.52;;;5.70;99.90;;;;;;7407330;19;19920;-70
2023/01/09 11:16:56;;;;;;;4.53;1.60;;;5.70;99.90;;;;;;7407575;19;19918;-70
2023/01/09 11:19:27;;;;;;;5.00;1.50;;;5.60;99.90;;;;;;7407116;19;19919;-70
2023/01/09 11:22:10;;;;;;;2.63;1.35;;;5.50;99.90;;;;;;7410385;19;19986;-70
2023/01/09 11:24:39;;;;;;;3.35;1.42;;;5.40;99.90;;;;;;7408414;19;19914;-70
2023/01/09 11:27:26;;;;;;;2.50;1.10;;;5.50;99.90;;;;;;7406904;19;19919;-70
2023/01/09 11:30:27;;;;;;;4.32;1.95;;;6.20;99.90;;;;;;7406807;19;19931;-70
2023/01/09 11:32:57;;;;;;;3.75;1.40;;;5.50;99.90;;;;;;7407012;19;19946;-70
2023/01/09 11:35:30;;;;;;;2.67;1.45;;;5.50;99.90;;;;;;7407089;19;19990;-69
2023/01/09 11:38:07;;;;;;;2.80;1.42;;;5.50;99.90;;;;;;7406849;19;19921;-69
2023/01/09 11:40:55;;;;;;;3.70;1.67;;;6.70;99.90;;;;;;7405800;19;19914;-69
2023/01/09 11:43:37;;;;;;;6.10;1.45;;;6.50;99.90;;;;;;7405857;19;19922;-70
2023/01/09 11:46:07;;;;;;;5.50;1.55;;;5.70;99.90;;;;;;7405862;19;19915;-70
2023/01/09 11:48:42;;;;;;;9.40;1.90;;;5.50;99.90;;;;;;7404425;19;19923;-69
2023/01/09 11:51:29;;;;;;;4.00;1.65;;;5.90;99.90;;;;;;7408581;19;19929;-70
2023/01/09 11:54:22;;;;;;;7.20;1.77;;;6.30;99.90;;;;;;7408281;19;20272;-68
2023/01/09 11:56:52;;;;;;;3.47;1.75;;;5.60;99.90;;;;;;7405665;19;19914;-68
2023/01/09 11:59:23;;;;;;;5.18;1.58;;;5.60;99.90;;;;;;7401281;19;19923;-75
2023/01/09 12:02:13;;;;;;;4.70;2.03;;;5.50;99.90;;;;;;7407334;19;19930;-73
2023/01/09 12:04:49;;;;;;;4.63;2.03;;;5.70;99.90;;;;;;7406971;19;19915;-73
2023/01/09 12:07:45;;;;;;;4.75;2.00;;;6.80;99.90;;;;;;7407981;19;19922;-73
2023/01/09 12:10:34;;;;;;;5.75;1.80;;;5.50;99.90;;;;;;7407067;19;20031;-73
2023/01/09 12:13:12;;;;;;;7.07;2.20;;;5.60;99.90;;;;;;7408586;19;19918;-73
2023/01/09 12:15:54;;;;;;;5.63;1.83;;;5.50;99.90;;;;;;7407087;19;19926;-74
2023/01/09 12:18:39;;;;;;;6.32;1.88;;;5.80;99.90;;;;;;7407722;19;20412;-73
2023/01/09 12:21:18;;;;;;;4.30;2.15;;;5.50;99.90;;;;;;7407004;19;19999;-74
2023/01/09 12:24:04;;;;;;;3.83;1.85;;;5.50;99.90;;;;;;7403374;19;19942;-74
2023/01/09 12:26:43;;;;;;;3.83;2.03;;;5.50;99.90;;;;;;7398697;19;19992;-74
2023/01/09 12:29:36;;;;;;;5.07;2.55;;;5.60;99.90;;;;;;7406091;19;20319;-69
2023/01/09 12:32:24;;;;;;;4.85;2.10;;;5.50;99.90;;;;;;7404904;19;19915;-69
2023/01/09 12:35:01;;;;;;;6.35;2.38;;;5.60;99.90;;;;;;7401974;19;19922;-69
2023/01/09 12:37:56;;;;;;;4.70;2.20;;;6.20;99.90;;;;;;7405199;19;19929;-69
2023/01/09 12:40:50;;;;;;;3.38;1.92;;;5.70;99.90;;;;;;7404850;19;19927;-69
2023/01/09 12:43:31;;;;;;;3.83;1.80;;;5.70;99.90;;;;;;7404550;19;19992;-68
2023/01/09 12:46:14;;;;;;;5.38;1.75;;;5.70;99.90;;;;;;7403025;19;19919;-69
2023/01/09 12:49:06;;;;;;;4.85;2.17;;;5.60;99.90;;;;;;7405022;19;19926;-68
2023/01/09 12:51:39;;;;;;;4.60;2.10;;;5.70;99.90;;;;;;7403411;19;19919;-69
2023/01/09 12:54:14;;;;;;;4.68;2.10;;;5.80;99.90;;;;;;7403043;19;19922;-68
2023/01/09 12:56:47;;;;;;;4.32;2.10;;;5.60;99.90;;;;;;7405732;19;19929;-70
2023/01/09 12:59:31;;;;;;;4.20;2.30;;;5.80;99.90;;;;;;7404799;19;19919;-69
2023/01/09 13:02:11;;;;;;;3.17;2.17;;;5.60;99.90;;;;;;7403372;19;20332;-69
2023/01/09 13:04:45;;;;;;;5.70;3.10;;;6.90;99.90;;;;;;7405657;19;19982;-69
2023/01/09 13:07:19;;;;;;;7.05;2.65;;;6.90;99.90;;;;;;7403103;19;19919;-69
2023/01/09 13:09:54;;;;;;;5.03;2.55;;;5.70;99.90;;;;;;7403507;19;19918;-69
2023/01/09 13:12:25;;;;;;;5.82;2.78;;;5.70;99.90;;;;;;7403082;19;20345;-69
2023/01/09 13:15:01;;;;;;;4.03;2.50;;;5.90;99.90;;;;;;7407062;19;20404;-69
2023/01/09 13:17:36;;;;;;;5.82;2.55;;;6.80;99.90;;;;;;7405048;19;20309;-69
2023/01/09 13:20:18;;;;;;;6.88;2.83;;;5.80;99.90;;;;;;7408007;19;19911;-69
2023/01/09 13:22:49;;;;;;;7.13;2.60;;;5.80;99.90;;;;;;7402188;19;19914;-69
2023/01/09 13:25:38;;;;;;;7.28;2.30;;;5.80;99.90;;;;;;7403225;19;19915;-69
2023/01/09 13:28:15;;;;;;;7.68;3.50;;;5.80;99.90;;;;;;7402966;19;19938;-69
2023/01/09 13:31:01;;;;;;;4.57;2.03;;;6.10;99.90;;;;;;7403849;19;20351;-69
2023/01/09 13:33:32;;;;;;;6.05;2.35;;;6.30;99.90;;;;;;7402745;19;20288;-69
2023/01/09 13:36:02;;;;;;;5.07;2.22;;;5.90;99.90;;;;;;7404467;19;19923;-69
2023/01/09 13:38:35;;;;;;;3.67;2.67;;;5.90;99.90;;;;;;7406480;19;20258;-69
2023/01/09 13:43:56;;;;;;;7.43;3.40;;;5.90;99.90;;;;;;7403329;19;19919;-69
2023/01/09 13:46:37;;;;;;;4.22;2.47;;;5.90;99.90;;;;;;7404283;19;19919;-69